Pex — V2OS6 — position and weather

sailwx.info

Track history (hours):
 
Tides and Currents Weather Stations Pressure Air Temp Water Temp Dewpoint Dewpoint Depression Visibility Wind Speed Wind Dir Waves Ship Positions

Pex

Last reported at 2017-Sep-24 19:30 UTC. Time now 2017-Sep-24 19:35 UTC.
Position N 51°24' E 001°32'.

Length 91 m; draft 5.8 m.

Type: Cargo ship. MMSI: 304201000.

Date/timePositionNaut miles runAvg speedWind from/ knotsBaromVisibWave heightAir tempDewpointWater temp
2017-Sep-24 19:30N 51°24' E 001°32'4 8.9
2017-Sep-24 19:00N 51°23' E 001°39'4 8.3
2017-Sep-24 18:31N 51°26' E 001°45'4 8.5
2017-Sep-24 18:01N 51°29' E 001°49'4 7.0
2017-Sep-24 17:31N 51°30' E 001°54'3 6.8
2017-Sep-24 17:01N 51°28' E 001°58'4 8.1
2017-Sep-24 16:30N 51°25' E 002°02'5 9.5
2017-Sep-24 16:00N 51°21' E 002°07'510.9
2017-Sep-24 15:30N 51°16' E 002°06'611.8
2017-Sep-24 15:00N 51°12' E 001°58'612.0
2017-Sep-24 14:31N 51°10' E 001°49'612.5
2017-Sep-24 14:00N 51°06' E 001°41'612.1
2017-Sep-24 13:30N 51°02' E 001°34'611.4
2017-Sep-24 13:00N 50°58' E 001°28'510.2
2017-Sep-24 12:30N 50°53' E 001°24'610.2
2017-Sep-24 11:56N 50°48' E 001°22'410.2
2017-Sep-24 11:30N 50°43' E 001°21'5 9.5
2017-Sep-24 10:58N 50°40' E 001°15'8 9.8
2017-Sep-24 10:08N 50°35' E 001°05'33 8.9
2017-Sep-24 06:28N 50°24' E 000°16'39 8.2
2017-Sep-24 01:39N 50°19' W 000°45'1 9.7
2017-Sep-24 01:30N 50°19' W 000°47'  
2017-Sep-21 21:09N 54°01' W 005°24'5 9.4
2017-Sep-21 20:38N 54°06' W 005°23'1 9.4
2017-Sep-21 20:30N 54°07' W 005°23'5 9.5
2017-Sep-21 19:59N 54°12' W 005°22'510.0
2017-Sep-21 19:30N 54°16' W 005°21'510.5
2017-Sep-21 19:00N 54°22' W 005°20'510.3
2017-Sep-21 18:30N 54°27' W 005°19'510.4
2017-Sep-21 18:00N 54°32' W 005°22'510.0
2017-Sep-21 17:30N 54°36' W 005°25'5 9.8
2017-Sep-21 17:00N 54°41' W 005°28'4 8.8
2017-Sep-21 16:30N 54°42' W 005°35'510.5
2017-Sep-21 16:01N 54°42' W 005°44'510.0
2017-Sep-21 15:30N 54°39' W 005°51'2 0.4
2017-Sep-21 09:15N 54°37' W 005°54'0 0.0
2017-Sep-21 05:03N 54°37' W 005°54'0 0.0
2017-Sep-21 04:42N 54°37' W 005°54'0 0.0
2017-Sep-21 04:30N 54°37' W 005°54'0 0.0
2017-Sep-21 03:58N 54°37' W 005°54'1 1.8
2017-Sep-21 03:28N 54°38' W 005°53'4 9.3
2017-Sep-21 03:00N 54°41' W 005°48'5 9.6
2017-Sep-21 02:30N 54°43' W 005°40'510.2
2017-Sep-21 02:00N 54°43' W 005°31'611.0
2017-Sep-21 01:30N 54°39' W 005°26'612.3
2017-Sep-21 01:00N 54°33' W 005°22'611.5
2017-Sep-21 00:30N 54°27' W 005°20'510.2
2017-Sep-21 00:00N 54°22' W 005°21'510.8
2017-Sep-20 23:30N 54°17' W 005°25'510.3
2017-Sep-20 23:00N 54°13' W 005°30'510.3
2017-Sep-20 22:30N 54°10' W 005°36'610.5
2017-Sep-20 21:56N 54°06' W 005°44'510.4
2017-Sep-20 21:28N 54°02' W 005°50'810.1
2017-Sep-20 20:44N 54°00' W 006°02'2 8.2
2017-Sep-20 20:29N 54°01' W 006°05'  
2017-Sep-15 17:49N 54°02' W 006°07'3 8.9
2017-Sep-15 17:28N 54°00' W 006°02'2 0.1
2017-Sep-15 03:55N 53°58' W 006°00'2 5.0
2017-Sep-15 03:29N 53°56' W 005°59'5 9.1
2017-Sep-15 02:53N 53°51' W 005°58'  
Track history (hours):
 
Tides and Currents Weather Stations Pressure Air Temp Water Temp Dewpoint Dewpoint Depression Visibility Wind Speed Wind Dir Waves Ship Positions

Pex

Last reported at 2017-Sep-24 19:30 UTC. Time now 2017-Sep-24 19:35 UTC.
Position N 51°24' E 001°32'.

Length 91 m; draft 5.8 m.

Type: Cargo ship. MMSI: 304201000.

Date/timePositionNaut miles runAvg speedWind from/ knotsBaromVisibWave heightAir tempDewpointWater temp
2017-Sep-24 19:30N 51°24' E 001°32'4 8.9
2017-Sep-24 19:00N 51°23' E 001°39'4 8.3
2017-Sep-24 18:31N 51°26' E 001°45'4 8.5
2017-Sep-24 18:01N 51°29' E 001°49'4 7.0
2017-Sep-24 17:31N 51°30' E 001°54'3 6.8
2017-Sep-24 17:01N 51°28' E 001°58'4 8.1
2017-Sep-24 16:30N 51°25' E 002°02'5 9.5
2017-Sep-24 16:00N 51°21' E 002°07'510.9
2017-Sep-24 15:30N 51°16' E 002°06'611.8
2017-Sep-24 15:00N 51°12' E 001°58'612.0
2017-Sep-24 14:31N 51°10' E 001°49'612.5
2017-Sep-24 14:00N 51°06' E 001°41'612.1
2017-Sep-24 13:30N 51°02' E 001°34'611.4
2017-Sep-24 13:00N 50°58' E 001°28'510.2
2017-Sep-24 12:30N 50°53' E 001°24'610.2
2017-Sep-24 11:56N 50°48' E 001°22'410.2
2017-Sep-24 11:30N 50°43' E 001°21'5 9.5
2017-Sep-24 10:58N 50°40' E 001°15'8 9.8
2017-Sep-24 10:08N 50°35' E 001°05'33 8.9
2017-Sep-24 06:28N 50°24' E 000°16'39 8.2
2017-Sep-24 01:39N 50°19' W 000°45'1 9.7
2017-Sep-24 01:30N 50°19' W 000°47'  
2017-Sep-21 21:09N 54°01' W 005°24'5 9.4
2017-Sep-21 20:38N 54°06' W 005°23'1 9.4
2017-Sep-21 20:30N 54°07' W 005°23'5 9.5
2017-Sep-21 19:59N 54°12' W 005°22'510.0
2017-Sep-21 19:30N 54°16' W 005°21'510.5
2017-Sep-21 19:00N 54°22' W 005°20'510.3
2017-Sep-21 18:30N 54°27' W 005°19'510.4
2017-Sep-21 18:00N 54°32' W 005°22'510.0
2017-Sep-21 17:30N 54°36' W 005°25'5 9.8
2017-Sep-21 17:00N 54°41' W 005°28'4 8.8
2017-Sep-21 16:30N 54°42' W 005°35'510.5
2017-Sep-21 16:01N 54°42' W 005°44'510.0
2017-Sep-21 15:30N 54°39' W 005°51'2 0.4
2017-Sep-21 09:15N 54°37' W 005°54'0 0.0
2017-Sep-21 05:03N 54°37' W 005°54'0 0.0
2017-Sep-21 04:42N 54°37' W 005°54'0 0.0
2017-Sep-21 04:30N 54°37' W 005°54'0 0.0
2017-Sep-21 03:58N 54°37' W 005°54'1 1.8
2017-Sep-21 03:28N 54°38' W 005°53'4 9.3
2017-Sep-21 03:00N 54°41' W 005°48'5 9.6
2017-Sep-21 02:30N 54°43' W 005°40'510.2
2017-Sep-21 02:00N 54°43' W 005°31'611.0
2017-Sep-21 01:30N 54°39' W 005°26'612.3
2017-Sep-21 01:00N 54°33' W 005°22'611.5
2017-Sep-21 00:30N 54°27' W 005°20'510.2
2017-Sep-21 00:00N 54°22' W 005°21'510.8
2017-Sep-20 23:30N 54°17' W 005°25'510.3
2017-Sep-20 23:00N 54°13' W 005°30'510.3
2017-Sep-20 22:30N 54°10' W 005°36'610.5
2017-Sep-20 21:56N 54°06' W 005°44'510.4
2017-Sep-20 21:28N 54°02' W 005°50'810.1
2017-Sep-20 20:44N 54°00' W 006°02'2 8.2
2017-Sep-20 20:29N 54°01' W 006°05'  
2017-Sep-15 17:49N 54°02' W 006°07'3 8.9
2017-Sep-15 17:28N 54°00' W 006°02'2 0.1
2017-Sep-15 03:55N 53°58' W 006°00'2 5.0
2017-Sep-15 03:29N 53°56' W 005°59'5 9.1
2017-Sep-15 02:53N 53°51' W 005°58'  

Dump ship's entire track history